Lebanon, Virginia
Current Conditions -  °F | °C
As of 3:55 PM on Tuesday 25 Nov 2014 (Local Time) from KVJI Reporting Station
Clear Clear  
Wind Chill: 54°   Ceiling: Unl
Heat Index: 54°   Visibility: 10mi
Dew Point: 24°   Wind: 6mph
Humidity: 32%   Direction: 270°W
Pressure: 30.05"   Gusts: NA
Location:  36.9°N, 82.08°W
Report Text: KVJI 252055Z AUTO 27005KT 10SM CLR 12/M04 A3005 RMK AO2 T01201043
Loading
Personal Weather Stations






























Interactive Weather Map New forecast layout! Learn more

10-Day Weather Forecast

Advertisements
Track Severe Weather on mobile